Time;durP1;ratioP1;P1;durP2;ratioP2;P2;SDS_P1;SDS_P2;PMS_P1;PMS_P2;Temp;Humidity;BMP_temperature;BMP_pressure;BME280_temperature;BME280_humidity;BME280_pressure;Samples;Min_cycle;Max_cycle;Signal;HPM_P1;HPM_P2
2021/07/29 00:02:17;;;;;;;3.43;2.83;;;;;;;29.43;40.86;97866.56;5069274;28;20741;-74
2021/07/29 00:04:44;;;;;;;3.23;2.37;;;;;;;29.95;39.75;97873.63;5063381;28;20560;-75
2021/07/29 00:07:11;;;;;;;6.00;2.53;;;;;;;29.69;40.74;97872.91;5061446;28;20734;-74
2021/07/29 00:09:38;;;;;;;4.57;2.80;;;;;;;29.20;41.77;97876.97;5051267;28;20203;-74
2021/07/29 00:12:08;;;;;;;3.80;2.70;;;;;;;29.58;40.34;97877.09;5051108;28;20214;-74
2021/07/29 00:14:35;;;;;;;3.07;2.20;;;;;;;29.91;39.96;97875.41;5060227;28;20225;-74
2021/07/29 00:17:03;;;;;;;4.10;2.57;;;;;;;30.10;38.47;97873.88;5071239;28;20605;-74
2021/07/29 00:19:29;;;;;;;4.67;2.37;;;;;;;29.90;39.11;97882.06;5065088;28;20209;-74
2021/07/29 00:21:56;;;;;;;4.03;2.37;;;;;;;29.94;39.09;97872.00;5073277;28;20569;-74
2021/07/29 00:24:26;;;;;;;3.50;2.27;;;;;;;30.03;38.96;97879.09;5065849;28;20202;-75
2021/07/29 00:26:54;;;;;;;4.87;2.20;;;;;;;30.01;39.25;97880.56;5065933;28;20215;-73
2021/07/29 00:29:25;;;;;;;4.70;2.43;;;;;;;30.16;38.91;97880.84;5064798;28;20269;-73
2021/07/29 00:31:52;;;;;;;3.13;2.67;;;;;;;29.61;40.16;97880.03;5061367;28;20212;-73
2021/07/29 00:34:19;;;;;;;3.43;2.30;;;;;;;30.07;38.55;97876.47;5056185;28;20206;-74
2021/07/29 00:36:48;;;;;;;2.60;2.20;;;;;;;29.99;38.70;97874.59;5054386;28;20211;-74
2021/07/29 00:39:15;;;;;;;3.10;2.23;;;;;;;29.99;39.38;97875.38;5054209;28;20200;-74
2021/07/29 00:41:42;;;;;;;2.77;2.00;;;;;;;29.70;39.80;97871.75;5066421;28;20293;-74
2021/07/29 00:44:09;;;;;;;2.43;2.10;;;;;;;29.86;39.50;97872.84;5067086;28;20214;-75
2021/07/29 00:46:38;;;;;;;3.37;2.13;;;;;;;29.88;39.20;97876.06;5066943;28;20231;-75
2021/07/29 00:49:06;;;;;;;4.63;2.63;;;;;;;29.91;39.28;97876.22;5071620;28;20205;-74
2021/07/29 00:51:35;;;;;;;3.67;2.23;;;;;;;29.92;39.12;97882.53;5071784;28;20202;-74
2021/07/29 00:54:02;;;;;;;4.13;2.57;;;;;;;29.87;38.85;97883.53;5072737;28;20202;-74
2021/07/29 00:56:30;;;;;;;4.27;2.50;;;;;;;29.87;39.94;97875.28;5055832;28;20702;-74
2021/07/29 00:58:57;;;;;;;3.27;2.27;;;;;;;29.72;39.36;97872.22;5053765;28;20203;-74
2021/07/29 01:01:25;;;;;;;5.47;2.20;;;;;;;29.85;39.17;97868.47;5068201;28;20201;-74
2021/07/29 01:03:53;;;;;;;3.73;2.33;;;;;;;30.28;38.25;97869.97;5059910;28;20416;-75
2021/07/29 01:06:21;;;;;;;4.03;2.20;;;;;;;29.87;38.80;97874.44;5053678;28;20246;-74
2021/07/29 01:09:03;;;;;;;14.27;7.47;;;;;;;29.89;38.07;97872.97;5068903;28;20601;-75
2021/07/29 01:11:31;;;;;;;3.90;2.97;;;;;;;29.42;39.87;97870.47;5070325;28;20206;-75
2021/07/29 01:13:58;;;;;;;2.57;2.00;;;;;;;29.39;39.48;97874.66;5055345;28;20621;-75
2021/07/29 01:16:25;;;;;;;2.87;2.07;;;;;;;29.36;39.61;97874.50;5053458;28;20327;-75
2021/07/29 01:18:54;;;;;;;5.60;2.37;;;;;;;29.71;38.74;97870.59;5054118;28;20360;-75
2021/07/29 01:21:23;;;;;;;3.07;2.23;;;;;;;29.55;38.62;97870.31;5061406;28;20736;-75
2021/07/29 01:23:50;;;;;;;2.50;1.93;;;;;;;29.46;39.06;97871.44;5054921;28;20206;-75
2021/07/29 01:26:17;;;;;;;3.00;2.20;;;;;;;29.94;38.27;97866.50;5066029;28;20245;-75
2021/07/29 01:28:45;;;;;;;4.70;2.20;;;;;;;29.23;39.38;97868.06;5053478;28;20229;-75
2021/07/29 01:31:12;;;;;;;2.80;2.20;;;;;;;29.67;39.47;97869.63;5059670;28;20244;-75
2021/07/29 01:33:40;;;;;;;5.13;2.73;;;;;;;29.64;38.77;97864.81;5067672;28;20233;-75
2021/07/29 01:36:08;;;;;;;3.47;2.60;;;;;;;29.33;39.37;97864.16;5052976;28;20226;-75
2021/07/29 01:38:36;;;;;;;4.93;2.70;;;;;;;29.52;38.79;97857.19;5067188;28;20201;-75
2021/07/29 01:41:05;;;;;;;4.23;2.37;;;;;;;29.72;38.82;97859.28;5052851;28;20271;-75
2021/07/29 01:43:32;;;;;;;5.83;2.57;;;;;;;29.71;38.62;97848.59;5062426;28;20542;-75
2021/07/29 01:46:00;;;;;;;3.83;2.10;;;;;;;29.72;39.11;97856.53;5053941;28;20323;-75
2021/07/29 01:48:27;;;;;;;2.63;2.00;;;;;;;29.71;38.66;97854.09;5054046;28;20230;-75
2021/07/29 01:50:55;;;;;;;3.30;2.40;;;;;;;29.66;39.25;97857.03;5069514;28;20215;-75
2021/07/29 01:53:23;;;;;;;2.93;2.30;;;;;;;29.54;39.44;97851.38;5063401;28;20203;-75
2021/07/29 01:55:51;;;;;;;4.23;2.43;;;;;;;29.90;38.42;97847.06;5065108;28;20222;-75
2021/07/29 01:58:19;;;;;;;2.97;2.60;;;;;;;29.54;39.78;97854.13;5052717;28;20202;-75
2021/07/29 02:00:48;;;;;;;4.00;2.60;;;;;;;29.48;39.41;97849.91;5052632;28;20639;-75
2021/07/29 02:03:15;;;;;;;3.10;2.53;;;;;;;30.09;38.59;97849.41;5061749;28;20203;-75
2021/07/29 02:05:42;;;;;;;4.20;2.47;;;;;;;30.14;38.39;97849.28;5059893;28;20218;-75
2021/07/29 02:08:10;;;;;;;3.63;2.77;;;;;;;29.72;39.09;97848.28;5066916;28;20242;-76
2021/07/29 02:10:37;;;;;;;3.40;2.60;;;;;;;29.80;39.22;97844.69;5051828;28;20672;-75
2021/07/29 02:13:06;;;;;;;4.13;2.90;;;;;;;29.86;39.47;97843.38;5052700;28;20215;-75
2021/07/29 02:15:33;;;;;;;6.30;2.90;;;;;;;30.08;38.82;97853.31;5051732;28;20231;-75
2021/07/29 02:18:02;;;;;;;4.83;2.80;;;;;;;29.75;39.46;97858.59;5052066;28;20198;-75
2021/07/29 02:20:31;;;;;;;3.43;2.53;;;;;;;29.88;39.57;97849.34;5052585;28;20256;-75
2021/07/29 02:22:58;;;;;;;4.40;2.53;;;;;;;29.82;39.65;97849.84;5052123;28;20289;-75
2021/07/29 02:25:25;;;;;;;3.17;2.70;;;;;;;29.80;39.68;97861.19;5053656;28;20233;-75
2021/07/29 02:27:53;;;;;;;3.80;2.40;;;;;;;29.71;39.77;97865.09;5071103;28;20222;-75
2021/07/29 02:30:21;;;;;;;3.40;2.60;;;;;;;29.52;40.28;97857.19;5051738;28;20210;-75
2021/07/29 02:32:51;;;;;;;3.57;2.57;;;;;;;29.59;40.16;97856.72;5070681;28;20201;-74
2021/07/29 02:35:19;;;;;;;7.37;3.10;;;;;;;29.76;39.92;97857.50;5061851;28;20321;-75
2021/07/29 02:37:46;;;;;;;6.87;3.00;;;;;;;29.81;39.55;97859.25;5052152;28;20195;-74
2021/07/29 02:40:14;;;;;;;4.53;2.87;;;;;;;29.56;40.49;97858.19;5056397;28;20205;-75
2021/07/29 02:42:41;;;;;;;5.07;2.60;;;;;;;29.84;40.37;97859.41;5059700;28;20210;-75
2021/07/29 02:45:09;;;;;;;4.43;2.77;;;;;;;29.70;40.18;97860.75;5053137;28;20284;-75
2021/07/29 02:47:38;;;;;;;7.10;3.10;;;;;;;29.63;40.30;97863.16;5051758;28;20589;-75
2021/07/29 02:50:06;;;;;;;4.43;3.20;;;;;;;29.68;40.37;97866.56;5057161;28;20233;-75
2021/07/29 02:52:33;;;;;;;3.70;2.87;;;;;;;29.78;40.19;97868.16;5070404;28;20674;-75
2021/07/29 02:55:01;;;;;;;5.57;3.30;;;;;;;29.87;40.08;97861.50;5057671;28;20591;-75
2021/07/29 02:57:28;;;;;;;4.93;3.27;;;;;;;29.87;40.65;97869.75;5068913;28;20204;-75
2021/07/29 02:59:56;;;;;;;3.60;2.70;;;;;;;29.76;40.50;97873.19;5062064;28;20284;-75
2021/07/29 03:02:23;;;;;;;4.63;3.50;;;;;;;29.51;40.50;97877.59;5057571;28;20276;-75
2021/07/29 03:04:53;;;;;;;3.73;3.07;;;;;;;28.93;42.73;97865.44;5057787;28;20221;-74
2021/07/29 03:07:20;;;;;;;4.37;3.20;;;;;;;28.81;43.23;97863.31;5058453;28;20230;-74
2021/07/29 03:09:48;;;;;;;5.57;3.00;;;;;;;29.34;41.77;97855.59;5051183;28;20205;-74
2021/07/29 03:12:15;;;;;;;4.70;3.00;;;;;;;29.06;42.59;97859.00;5051691;28;20654;-75
2021/07/29 03:14:44;;;;;;;4.60;3.07;;;;;;;27.97;45.24;97859.16;5059803;28;20194;-75
2021/07/29 03:17:11;;;;;;;6.20;4.20;;;;;;;27.71;46.74;97860.94;5051528;28;20211;-75
2021/07/29 03:19:39;;;;;;;4.57;3.43;;;;;;;28.35;47.35;97852.06;5066128;28;20803;-75
2021/07/29 03:22:07;;;;;;;4.60;3.37;;;;;;;27.94;45.70;97851.59;5063251;28;20193;-75
2021/07/29 03:24:35;;;;;;;5.23;3.40;;;;;;;28.70;45.22;97855.72;5058101;28;20205;-74
2021/07/29 03:27:02;;;;;;;5.17;3.70;;;;;;;28.46;45.33;97849.84;5051305;28;20285;-74
2021/07/29 03:29:30;;;;;;;4.93;3.73;;;;;;;27.89;46.28;97851.72;5064826;28;20209;-75
2021/07/29 03:31:57;;;;;;;6.47;3.60;;;;;;;28.87;42.70;97855.72;5062949;28;20202;-75
2021/07/29 03:34:24;;;;;;;5.83;3.23;;;;;;;28.96;42.56;97860.09;5058130;28;20681;-75
2021/07/29 03:36:52;;;;;;;6.00;3.00;;;;;;;28.62;43.02;97864.72;5051206;28;20221;-75
2021/07/29 03:39:20;;;;;;;3.80;3.10;;;;;;;28.50;43.74;97861.81;5052243;28;20571;-75
2021/07/29 03:41:48;;;;;;;6.77;3.40;;;;;;;28.37;43.47;97860.75;5051246;28;20204;-75
2021/07/29 03:44:15;;;;;;;5.60;3.50;;;;;;;28.62;42.88;97865.53;5054134;28;20206;-75
2021/07/29 03:46:42;;;;;;;5.40;3.43;;;;;;;28.50;44.04;97870.03;5063128;28;20225;-75
2021/07/29 03:49:09;;;;;;;5.03;3.40;;;;;;;28.87;42.90;97870.28;5060482;28;20217;-75
2021/07/29 03:51:37;;;;;;;3.63;2.83;;;;;;;28.41;43.23;97864.53;5060409;28;20212;-75
2021/07/29 03:54:04;;;;;;;4.80;3.07;;;;;;;28.18;43.91;97870.41;5051764;28;20215;-75
2021/07/29 03:56:33;;;;;;;4.90;3.33;;;;;;;28.16;43.82;97867.97;5054733;28;20244;-75
2021/07/29 03:59:01;;;;;;;5.47;3.40;;;;;;;27.85;43.85;97869.09;5060483;28;20199;-75
2021/07/29 04:01:29;;;;;;;5.63;3.20;;;;;;;28.12;44.47;97866.19;5069112;28;20791;-75
2021/07/29 04:03:57;;;;;;;4.90;3.37;;;;;;;28.11;43.24;97872.78;5070260;28;20665;-75
2021/07/29 04:06:24;;;;;;;4.90;3.10;;;;;;;28.54;42.73;97880.06;5071213;28;20232;-75
2021/07/29 04:08:51;;;;;;;6.90;3.30;;;;;;;28.64;42.48;97884.47;5056221;28;20219;-75
2021/07/29 04:11:18;;;;;;;3.87;3.07;;;;;;;28.32;44.89;97876.59;5054913;28;20285;-74
2021/07/29 04:13:47;;;;;;;4.10;3.30;;;;;;;28.57;42.66;97884.94;5070821;28;20210;-74
2021/07/29 04:16:14;;;;;;;5.50;3.20;;;;;;;28.48;42.78;97889.56;5063853;28;20222;-74
2021/07/29 04:18:42;;;;;;;5.20;3.40;;;;;;;29.12;41.51;97894.25;5058413;28;21000;-74
2021/07/29 04:21:15;;;;;;;5.97;3.33;;;;;;;29.22;40.49;97893.13;5054293;28;20245;-74
2021/07/29 04:23:42;;;;;;;6.03;3.07;;;;;;;29.17;40.56;97894.09;5054874;28;20253;-74
2021/07/29 04:26:10;;;;;;;5.53;3.10;;;;;;;29.15;41.34;97890.06;5056006;28;20301;-75
2021/07/29 04:28:37;;;;;;;2.83;2.53;;;;;;;29.19;40.93;97896.53;5058872;28;20891;-74
2021/07/29 04:31:06;;;;;;;5.87;3.37;;;;;;;29.23;40.83;97892.00;5070632;28;20294;-73
2021/07/29 04:33:33;;;;;;;3.57;2.73;;;;;;;29.02;40.95;97889.06;5059504;28;20294;-73
2021/07/29 04:36:00;;;;;;;4.60;2.80;;;;;;;28.63;41.53;97899.31;5065721;28;20226;-74
2021/07/29 04:38:28;;;;;;;5.23;3.00;;;;;;;28.99;41.25;97891.66;5068038;28;20203;-73
2021/07/29 04:41:02;;;;;;;4.93;2.73;;;;;;;28.63;42.13;97891.09;5073929;28;20202;-74
2021/07/29 04:43:30;;;;;;;5.47;3.20;;;;;;;29.27;41.27;97898.44;5073343;28;20194;-74
2021/07/29 04:45:58;;;;;;;5.53;3.03;;;;;;;29.23;40.92;97897.50;5073872;28;20221;-73
2021/07/29 04:48:27;;;;;;;4.07;2.70;;;;;;;28.91;41.23;97895.16;5064210;28;20233;-75
2021/07/29 04:50:54;;;;;;;3.87;3.23;;;;;;;29.01;42.78;97892.97;5055132;28;20208;-73
2021/07/29 04:53:22;;;;;;;4.00;3.20;;;;;;;29.20;41.14;97892.63;5058293;28;20294;-72
2021/07/29 04:55:49;;;;;;;5.33;2.77;;;;;;;29.34;40.46;97896.81;5055163;28;20226;-72
2021/07/29 04:58:16;;;;;;;6.27;2.63;;;;;;;29.48;40.36;97891.16;5062304;28;20208;-72
2021/07/29 05:00:43;;;;;;;3.70;2.53;;;;;;;29.75;39.46;97893.59;5059890;28;20199;-72
2021/07/29 05:03:11;;;;;;;3.40;2.33;;;;;;;29.60;40.15;97892.13;5059646;28;20215;-72
2021/07/29 05:05:39;;;;;;;4.20;2.70;;;;;;;29.77;39.51;97896.81;5052810;28;20235;-70
2021/07/29 05:08:07;;;;;;;4.40;2.80;;;;;;;30.36;37.69;97896.63;5059925;28;20228;-70
2021/07/29 05:10:34;;;;;;;3.30;2.60;;;;;;;30.75;37.18;97888.03;5061985;28;20209;-71
2021/07/29 05:13:01;;;;;;;4.40;2.57;;;;;;;30.60;37.16;97899.59;5063656;28;20205;-73
2021/07/29 05:15:29;;;;;;;4.27;2.40;;;;;;;30.19;38.00;97901.41;5054588;28;20233;-70
2021/07/29 05:17:56;;;;;;;3.17;2.37;;;;;;;30.98;36.31;97896.81;5063685;28;20650;-70
2021/07/29 05:20:24;;;;;;;5.67;2.50;;;;;;;31.20;35.80;97908.34;5064948;28;20258;-70
2021/07/29 05:22:53;;;;;;;5.50;2.47;;;;;;;31.09;35.99;97901.59;5060390;28;20219;-71
2021/07/29 05:25:23;;;;;;;3.43;2.13;;;;;;;31.29;35.73;97900.00;5056227;28;20698;-70
2021/07/29 05:27:51;;;;;;;3.13;2.03;;;;;;;30.97;36.11;97907.00;5053797;28;20210;-70
2021/07/29 05:30:19;;;;;;;3.27;2.50;;;;;;;30.91;36.27;97902.84;5053232;28;20252;-71
2021/07/29 05:32:47;;;;;;;3.20;2.10;;;;;;;31.04;36.08;97898.22;5067975;28;20288;-70
2021/07/29 05:35:14;;;;;;;6.90;2.60;;;;;;;31.85;34.80;97896.56;5058748;28;20606;-71
2021/07/29 05:37:41;;;;;;;3.30;2.10;;;;;;;31.14;35.36;97904.16;5063101;28;20302;-70
2021/07/29 05:40:10;;;;;;;5.77;2.20;;;;;;;31.68;35.59;97897.50;5061052;28;20212;-70
2021/07/29 05:42:38;;;;;;;2.33;2.00;;;;;;;31.67;35.14;97895.13;5067895;28;20224;-71
2021/07/29 05:45:06;;;;;;;7.03;2.40;;;;;;;31.38;35.80;97890.53;5060740;28;20601;-70
2021/07/29 05:47:33;;;;;;;4.33;2.27;;;;;;;32.15;33.75;97896.06;5065959;28;20208;-71
2021/07/29 05:50:00;;;;;;;4.53;2.53;;;;;;;32.30;34.01;97900.16;5066258;28;20222;-70
2021/07/29 05:52:28;;;;;;;6.13;3.00;;;;;;;32.41;33.96;97901.31;5062803;28;20209;-72
2021/07/29 05:54:56;;;;;;;2.90;2.13;;;;;;;31.72;34.69;97909.50;5060443;28;20666;-71
2021/07/29 05:57:24;;;;;;;2.70;2.00;;;;;;;32.02;34.32;97910.22;5053163;28;20210;-71
2021/07/29 05:59:51;;;;;;;3.70;2.33;;;;;;;32.90;32.89;97914.00;5053477;28;20547;-72
2021/07/29 06:02:19;;;;;;;5.17;2.10;;;;;;;32.76;33.41;97908.81;5052277;28;20580;-72
2021/07/29 06:04:46;;;;;;;2.80;2.10;;;;;;;31.48;35.30;97909.38;5056214;28;20202;-71
2021/07/29 06:07:13;;;;;;;5.33;2.50;;;;;;;32.34;33.52;97917.66;5058466;28;20215;-71
2021/07/29 06:09:40;;;;;;;7.57;2.53;;;;;;;32.92;32.73;97909.72;5070629;28;20388;-70
2021/07/29 06:12:08;;;;;;;4.27;2.13;;;;;;;32.41;33.31;97915.13;5068517;28;20215;-71
2021/07/29 06:14:37;;;;;;;3.63;2.10;;;;;;;32.22;33.52;97912.88;5061663;28;20215;-72
2021/07/29 06:17:04;;;;;;;5.50;2.30;;;;;;;31.43;35.59;97909.63;5062183;28;20613;-72
2021/07/29 06:19:32;;;;;;;4.00;2.30;;;;;;;32.45;33.39;97910.53;5066609;28;20224;-72
2021/07/29 06:22:01;;;;;;;3.50;2.20;;;;;;;32.65;33.17;97906.84;5059546;28;20205;-72
2021/07/29 06:24:28;;;;;;;5.27;2.50;;;;;;;32.34;34.02;97909.38;5057989;28;20202;-72
2021/07/29 06:26:59;;;;;;;7.47;2.57;;;;;;;32.36;34.16;97923.63;5058309;28;20203;-75
2021/07/29 06:29:26;;;;;;;2.57;1.80;;;;;;;32.24;33.20;97915.31;5059520;28;20664;-74
2021/07/29 06:31:55;;;;;;;4.37;2.37;;;;;;;32.96;32.01;97927.25;5056586;28;20202;-71
2021/07/29 06:34:22;;;;;;;4.70;2.30;;;;;;;32.64;33.30;97919.06;5052048;28;20252;-71
2021/07/29 06:36:49;;;;;;;4.53;2.20;;;;;;;32.61;32.67;97926.09;5053888;28;20242;-73
2021/07/29 06:39:16;;;;;;;2.93;2.20;;;;;;;32.11;33.49;97920.00;5054787;28;20211;-73
2021/07/29 06:41:44;;;;;;;3.40;2.13;;;;;;;32.18;33.95;97927.72;5056309;28;20203;-72
2021/07/29 06:44:11;;;;;;;3.30;2.17;;;;;;;32.26;33.92;97915.78;5058540;28;20570;-73
2021/07/29 06:46:39;;;;;;;6.50;2.07;;;;;;;31.83;34.16;97920.97;5053005;28;20311;-72
2021/07/29 06:49:08;;;;;;;6.20;2.37;;;;;;;31.96;33.95;97923.41;5050739;28;20253;-73
2021/07/29 06:51:36;;;;;;;13.13;2.80;;;;;;;31.64;35.11;97921.44;5054846;28;20286;-77
2021/07/29 06:54:05;;;;;;;13.93;2.43;;;;;;;32.79;33.25;97926.69;5055657;28;20211;-74
2021/07/29 06:56:32;;;;;;;6.27;2.17;;;;;;;31.89;34.60;97919.59;5051020;28;20229;-74
2021/07/29 06:59:00;;;;;;;4.07;2.27;;;;;;;33.38;31.96;97936.88;5051711;28;20201;-74
2021/07/29 07:01:27;;;;;;;5.90;2.30;;;;;;;32.44;32.93;97936.53;5065457;28;20538;-75
2021/07/29 07:03:55;;;;;;;4.60;2.07;;;;;;;32.41;33.00;97935.28;5063105;28;20207;-76
2021/07/29 07:06:23;;;;;;;8.37;3.00;;;;;;;32.10;32.97;97945.19;5053017;28;20231;-74
2021/07/29 07:08:50;;;;;;;5.37;2.93;;;;;;;31.39;34.21;97944.53;5050959;28;20223;-73
2021/07/29 07:11:18;;;;;;;6.37;2.60;;;;;;;32.40;32.68;97943.91;5051995;28;20201;-73
2021/07/29 07:13:47;;;;;;;12.93;2.30;;;;;;;32.36;32.91;97943.78;5058034;28;20222;-73
2021/07/29 07:16:15;;;;;;;6.13;2.13;;;;;;;33.27;31.71;97940.44;5054789;28;20229;-73
2021/07/29 07:18:43;;;;;;;4.07;2.60;;;;;;;33.66;30.92;97934.91;5062714;28;20198;-74
2021/07/29 07:21:11;;;;;;;3.70;2.20;;;;;;;33.26;31.52;97938.81;5055739;28;20298;-73
2021/07/29 07:23:41;;;;;;;5.60;2.63;;;;;;;32.84;32.02;97941.06;5052084;28;20207;-73
2021/07/29 07:26:15;;;;;;;3.87;2.90;;;;;;;33.84;29.74;97943.75;5063851;28;20228;-73
2021/07/29 07:28:42;;;;;;;7.00;3.87;;;;;;;34.42;29.12;97943.78;5064433;28;20229;-73
2021/07/29 07:31:10;;;;;;;12.60;5.70;;;;;;;32.82;31.28;97942.56;5061679;28;20209;-73
2021/07/29 07:33:37;;;;;;;9.63;5.13;;;;;;;33.83;29.89;97945.75;5068520;28;20235;-73
2021/07/29 07:36:05;;;;;;;4.97;3.57;;;;;;;33.99;29.29;97945.75;5067846;28;20233;-73
2021/07/29 07:38:32;;;;;;;9.67;2.50;;;;;;;33.78;29.29;97945.16;5068134;28;20223;-73
2021/07/29 07:41:05;;;;;;;17.47;4.87;;;;;;;34.04;29.27;97962.94;5054993;28;20661;-73
2021/07/29 07:43:33;;;;;;;9.97;2.80;;;;;;;33.50;28.81;97955.41;5065068;28;20239;-74
2021/07/29 07:46:00;;;;;;;8.30;4.53;;;;;;;33.20;29.97;97951.31;5061338;28;20234;-74
2021/07/29 07:48:27;;;;;;;4.67;2.50;;;;;;;32.91;29.55;97955.13;5056022;28;20201;-73
2021/07/29 07:50:55;;;;;;;7.78;3.72;;;;;;;33.63;29.30;97945.91;5066645;28;20257;-74
2021/07/29 07:53:25;;;;;;;4.97;2.73;;;;;;;33.14;29.89;97949.94;5066115;28;20208;-74
2021/07/29 07:55:52;;;;;;;3.67;2.17;;;;;;;32.99;30.28;97950.63;5054232;28;20233;-73
2021/07/29 07:58:21;;;;;;;11.03;2.80;;;;;;;33.36;29.57;97947.50;5054755;28;20271;-74
2021/07/29 08:00:49;;;;;;;9.93;3.43;;;;;;;33.87;28.97;97948.59;5054719;28;20208;-74
2021/07/29 08:03:16;;;;;;;21.80;4.70;;;;;;;34.84;27.89;97948.84;5060605;28;20204;-75
2021/07/29 08:05:43;;;;;;;13.97;4.07;;;;;;;34.87;27.68;97948.13;5057886;28;20224;-71
2021/07/29 08:08:11;;;;;;;9.43;4.63;;;;;;;35.16;27.64;97942.84;5054528;28;20202;-70
2021/07/29 08:10:38;;;;;;;4.93;2.72;;;;;;;34.55;27.52;97947.28;5059899;28;20221;-70
2021/07/29 08:13:07;;;;;;;4.87;2.30;;;;;;;33.15;29.04;97957.06;5055859;28;20206;-70
2021/07/29 08:15:36;;;;;;;6.70;2.80;;;;;;;34.11;28.11;97963.13;5057595;28;20225;-70
2021/07/29 08:18:03;;;;;;;4.78;2.60;;;;;;;33.52;28.58;97950.31;5054740;28;20205;-70
2021/07/29 08:20:31;;;;;;;4.20;2.73;;;;;;;33.14;28.27;97952.69;5069246;28;20209;-70
2021/07/29 08:22:58;;;;;;;9.48;4.28;;;;;;;33.37;28.15;97951.06;5060985;28;20223;-71
2021/07/29 08:25:25;;;;;;;4.47;2.70;;;;;;;32.73;28.72;97945.41;5062903;28;20600;-70
2021/07/29 08:27:54;;;;;;;6.97;3.60;;;;;;;33.70;27.77;97943.34;5060666;28;20200;-70
2021/07/29 08:30:21;;;;;;;6.95;2.63;;;;;;;33.39;28.03;97957.06;5062722;28;20228;-70
2021/07/29 08:32:50;;;;;;;4.33;2.77;;;;;;;34.25;26.85;97949.66;5054036;28;20212;-70
2021/07/29 08:35:18;;;;;;;4.30;2.40;;;;;;;33.99;26.96;97963.19;5070677;28;20601;-70
2021/07/29 08:37:49;;;;;;;5.50;2.80;;;;;;;34.54;26.30;97951.22;5060017;28;20212;-69
2021/07/29 08:40:18;;;;;;;3.60;2.83;;;;;;;34.19;26.72;97958.59;5068454;28;20212;-73
2021/07/29 08:42:46;;;;;;;4.15;2.70;;;;;;;33.44;27.25;97960.38;5072845;28;20197;-70
2021/07/29 08:45:13;;;;;;;5.40;2.85;;;;;;;34.05;27.42;97949.91;5062758;28;20604;-69
2021/07/29 08:47:44;;;;;;;5.57;2.80;;;;;;;34.08;26.82;97949.19;5054175;28;20202;-69
2021/07/29 08:50:13;;;;;;;4.38;2.72;;;;;;;34.54;26.32;97956.78;5060818;28;20237;-70
2021/07/29 08:52:40;;;;;;;3.63;2.40;;;;;;;35.13;25.53;97954.69;5057384;28;20205;-70
2021/07/29 08:55:08;;;;;;;2.50;2.28;;;;;;;34.27;26.60;97968.72;5064438;28;20230;-70
2021/07/29 08:57:37;;;;;;;3.47;2.60;;;;;;;33.67;28.00;97952.34;5061382;28;20682;-70
2021/07/29 09:00:08;;;;;;;3.65;2.53;;;;;;;34.85;26.25;97956.00;5057516;28;20201;-71
2021/07/29 09:02:36;;;;;;;4.57;2.83;;;;;;;35.33;25.88;97958.34;5060738;28;20212;-72
2021/07/29 09:05:15;;;;;;;4.50;3.00;;;;;;;34.28;26.41;97964.03;5070839;28;20237;-72
2021/07/29 09:07:42;;;;;;;5.03;2.72;;;;;;;35.41;25.20;97958.13;5063080;28;20550;-71
2021/07/29 09:10:21;;;;;;;10.32;4.00;;;;;;;35.36;24.89;97954.84;5068984;28;20235;-71
2021/07/29 09:13:11;;;;;;;9.23;4.03;;;;;;;35.15;24.69;97963.44;5063231;28;20204;-71
2021/07/29 09:15:39;;;;;;;10.27;3.90;;;;;;;35.67;24.48;97963.06;5056803;28;20705;-71
2021/07/29 09:18:07;;;;;;;4.00;2.42;;;;;;;34.34;25.84;97972.50;5056069;28;20233;-71
2021/07/29 09:20:36;;;;;;;6.72;3.00;;;;;;;33.45;26.54;97969.50;5065847;28;20197;-71
2021/07/29 09:23:17;;;;;;;4.10;2.65;;;;;;;34.28;25.91;97965.63;5064024;28;20212;-71
2021/07/29 09:25:46;;;;;;;14.50;6.22;;;;;;;33.73;27.15;97957.28;5055388;28;20227;-71
2021/07/29 09:28:32;;;;;;;7.10;3.65;;;;;;;33.94;25.32;97969.00;5066659;28;20216;-74
2021/07/29 09:31:14;;;;;;;5.80;3.10;;;;;;;34.72;25.43;97966.34;5063589;28;20221;-72
2021/07/29 09:33:56;;;;;;;5.80;2.63;;;;;;;33.84;25.81;97969.50;5058116;28;20208;-70
2021/07/29 09:36:25;;;;;;;5.20;2.47;;;;;;;34.43;25.22;97972.34;5056899;28;20222;-70
2021/07/29 09:38:52;;;;;;;4.78;2.60;;;;;;;35.08;25.22;97971.63;5056373;28;20198;-73
2021/07/29 09:41:27;;;;;;;3.20;2.22;;;;;;;34.27;25.33;97963.16;5074631;28;20258;-70
2021/07/29 09:43:55;;;;;;;5.65;2.90;;;;;;;34.81;25.37;97967.03;5057662;28;20194;-71
2021/07/29 09:46:24;;;;;;;4.75;2.88;;;;;;;33.80;25.58;97963.03;5061780;28;20236;-71
2021/07/29 09:48:52;;;;;;;3.88;2.50;;;;;;;33.64;25.35;97967.69;5073547;28;20201;-72
2021/07/29 09:51:19;;;;;;;4.63;2.80;;;;;;;34.25;25.26;97952.44;5066130;28;20294;-75
2021/07/29 09:53:48;;;;;;;3.42;2.38;;;;;;;34.17;25.82;97960.91;5062385;28;20224;-71
2021/07/29 09:56:15;;;;;;;3.78;2.30;;;;;;;33.70;25.69;97957.19;5071911;28;20225;-70
2021/07/29 09:58:43;;;;;;;5.15;2.90;;;;;;;34.79;24.84;97951.91;5063086;28;20204;-72
2021/07/29 10:01:14;;;;;;;4.22;2.70;;;;;;;34.66;24.79;97951.16;5058197;28;20633;-71
2021/07/29 10:03:45;;;;;;;4.25;3.00;;;;;;;36.09;23.79;97944.47;5066285;28;20689;-71
2021/07/29 10:06:16;;;;;;;3.70;2.47;;;;;;;35.21;24.53;97936.25;5063028;28;20221;-71
2021/07/29 10:08:50;;;;;;;3.72;2.70;;;;;;;35.60;23.78;97954.59;5067838;28;20567;-71
2021/07/29 10:11:19;;;;;;;3.55;2.72;;;;;;;34.26;24.81;97948.50;5066409;28;20256;-71
2021/07/29 10:13:55;;;;;;;2.67;2.13;;;;;;;34.87;24.51;97935.06;5091995;27;20542;-72
2021/07/29 10:16:46;;;;;;;4.78;2.83;;;;;;;35.36;24.07;97933.44;5079189;28;20664;-71
2021/07/29 10:19:13;;;;;;;4.55;2.80;;;;;;;36.07;23.61;97933.72;5074589;28;20281;-71
2021/07/29 10:21:41;;;;;;;4.47;2.50;;;;;;;35.48;23.73;97924.97;5076611;28;20205;-71
2021/07/29 10:24:10;;;;;;;4.32;2.72;;;;;;;36.35;22.95;97925.97;5072204;28;20705;-69
2021/07/29 10:27:10;;;;;;;4.03;2.70;;;;;;;35.35;23.99;97929.06;5071505;28;20288;-71
2021/07/29 10:29:39;;;;;;;6.10;2.70;;;;;;;35.43;24.17;97928.06;5065419;28;20205;-73
2021/07/29 10:32:10;;;;;;;3.83;2.60;;;;;;;35.37;24.13;97937.03;5069679;28;20229;-79
2021/07/29 10:34:38;;;;;;;2.95;2.53;;;;;;;36.37;23.02;97925.59;5072272;28;20241;-78
2021/07/29 10:37:06;;;;;;;7.05;3.10;;;;;;;35.25;24.20;97920.50;5071200;28;20595;-72
2021/07/29 10:39:56;;;;;;;5.97;2.80;;;;;;;34.56;24.19;97929.50;5063880;28;20192;-76
2021/07/29 10:42:26;;;;;;;4.70;2.72;;;;;;;34.30;24.48;97938.34;5066056;28;20194;-71
2021/07/29 10:45:02;;;;;;;3.97;2.83;;;;;;;33.18;25.39;97932.28;5067690;28;20220;-76
2021/07/29 10:47:41;;;;;;;5.47;2.95;;;;;;;34.01;24.46;97929.63;5068896;28;20622;-73
2021/07/29 10:50:19;;;;;;;3.17;2.63;;;;;;;35.32;23.60;97913.13;5065345;28;20211;-71
2021/07/29 10:52:53;;;;;;;7.22;4.47;;;;;;;35.62;23.67;97919.72;5069136;28;20300;-71
2021/07/29 10:55:22;;;;;;;5.40;3.30;;;;;;;34.15;25.04;97919.69;5070538;28;20216;-71
2021/07/29 10:58:01;;;;;;;4.28;2.78;;;;;;;34.40;24.46;97914.81;5067864;28;20218;-70
2021/07/29 11:00:30;;;;;;;4.35;2.90;;;;;;;34.48;24.00;97924.94;5067803;28;20200;-73
2021/07/29 11:02:58;;;;;;;3.85;2.83;;;;;;;34.21;24.35;97920.25;5063352;28;20248;-73
2021/07/29 11:05:40;;;;;;;3.92;2.67;;;;;;;34.20;23.95;97929.75;5062329;28;20284;-73
2021/07/29 11:08:08;;;;;;;3.47;3.05;;;;;;;34.77;23.74;97910.66;5069945;28;20243;-72
2021/07/29 11:10:36;;;;;;;3.92;3.22;;;;;;;35.38;23.17;97921.97;5060854;28;20206;-72
2021/07/29 11:13:03;;;;;;;3.78;3.00;;;;;;;36.41;21.85;97907.00;5068595;28;20231;-73
2021/07/29 11:15:38;;;;;;;4.22;3.08;;;;;;;35.93;21.92;97894.59;5065628;28;20221;-74
2021/07/29 11:18:15;;;;;;;3.17;2.55;;;;;;;36.42;22.69;97905.81;5065935;28;20217;-74
2021/07/29 11:20:42;;;;;;;4.88;3.15;;;;;;;36.58;21.73;97912.84;5069953;28;20259;-72
2021/07/29 11:23:15;;;;;;;5.18;3.05;;;;;;;36.56;21.97;97906.06;5060752;28;20570;-72
2021/07/29 11:26:01;;;;;;;8.57;5.03;;;;;;;35.57;22.92;97908.91;5052915;28;20240;-72
2021/07/29 11:28:28;;;;;;;3.33;2.80;;;;;;;35.44;22.31;97901.88;5047212;28;20198;-72
2021/07/29 11:30:57;;;;;;;8.27;4.20;;;;;;;34.57;23.35;97906.16;5047788;28;20214;-71
2021/07/29 11:33:26;;;;;;;7.05;3.05;;;;;;;34.32;23.84;97901.97;5052461;28;20232;-70
2021/07/29 11:35:54;;;;;;;3.85;2.70;;;;;;;35.04;22.69;97906.13;5050349;28;20233;-71
2021/07/29 11:38:24;;;;;;;3.97;3.03;;;;;;;36.06;21.27;97890.44;5046448;28;20620;-70
2021/07/29 11:41:00;;;;;;;5.80;2.88;;;;;;;35.08;22.52;97898.66;5045677;28;20732;-71
2021/07/29 11:43:28;;;;;;;4.63;3.28;;;;;;;35.89;22.88;97895.66;5050720;28;20610;-72